Time;durP1;ratioP1;P1;durP2;ratioP2;P2;SDS_P1;SDS_P2;PMS_P1;PMS_P2;Temp;Humidity;BMP_temperature;BMP_pressure;BME280_temperature;BME280_humidity;BME280_pressure;Samples;Min_cycle;Max_cycle;Signal;HPM_P1;HPM_P2
2021/03/10 00:00:45;;;;;;;53.78;32.13;;;;;;;5.98;67.66;99104.00;5094695;28;20054;-71
2021/03/10 00:03:12;;;;;;;48.13;30.55;;;;;;;5.98;67.68;99104.81;5094474;28;20044;-72
2021/03/10 00:05:39;;;;;;;50.28;29.98;;;;;;;5.96;67.73;99104.16;5094385;28;20502;-72
2021/03/10 00:08:06;;;;;;;48.92;29.45;;;;;;;5.99;67.86;99105.63;5094376;28;20040;-72
2021/03/10 00:10:33;;;;;;;48.27;31.17;;;;;;;5.99;67.74;99103.81;5094378;28;20044;-72
2021/03/10 00:13:00;;;;;;;55.10;33.58;;;;;;;5.93;67.75;99104.47;5094315;28;20047;-71
2021/03/10 00:15:27;;;;;;;50.15;31.55;;;;;;;5.83;68.10;99099.28;5094337;28;20044;-72
2021/03/10 00:17:54;;;;;;;49.10;30.58;;;;;;;5.87;68.24;99105.03;5094308;28;20074;-72
2021/03/10 00:20:21;;;;;;;46.78;29.15;;;;;;;5.90;68.42;99102.94;5094347;28;20048;-72
2021/03/10 00:22:49;;;;;;;47.38;28.67;;;;;;;5.94;67.99;99103.47;5093973;28;20067;-72
2021/03/10 00:25:18;;;;;;;50.08;30.92;;;;;;;5.98;68.00;99107.44;5093767;28;20051;-71
2021/03/10 00:27:45;;;;;;;49.10;31.05;;;;;;;5.97;67.86;99108.41;5092672;28;20110;-72
2021/03/10 00:30:13;;;;;;;44.75;28.60;;;;;;;6.00;67.93;99107.25;5093929;28;20105;-71
2021/03/10 00:32:40;;;;;;;42.47;26.85;;;;;;;5.92;67.73;99102.81;5093867;28;20405;-72
2021/03/10 00:35:26;;;;;;;46.70;28.95;;;;;;;5.87;67.57;99112.91;5092622;28;20048;-71
2021/03/10 00:37:57;;;;;;;44.78;28.98;;;;;;;5.77;67.93;99112.19;5093858;28;20052;-71
2021/03/10 00:40:24;;;;;;;48.20;30.85;;;;;;;5.76;68.15;99110.56;5094156;28;20082;-71
2021/03/10 00:42:51;;;;;;;48.75;30.02;;;;;;;5.77;68.45;99115.66;5093661;28;20036;-71
2021/03/10 00:45:18;;;;;;;48.80;31.30;;;;;;;5.82;68.22;99113.38;5092222;28;20134;-71
2021/03/10 00:47:45;;;;;;;48.53;30.80;;;;;;;5.81;68.42;99119.59;5093363;28;20047;-72
2021/03/10 00:50:14;;;;;;;47.92;28.05;;;;;;;5.82;68.23;99113.38;5093271;28;20048;-71
2021/03/10 00:52:41;;;;;;;49.00;30.58;;;;;;;5.82;68.40;99117.81;5093504;28;20410;-72
2021/03/10 00:55:10;;;;;;;50.20;31.23;;;;;;;5.87;68.26;99123.41;5093364;28;20036;-72
2021/03/10 00:57:37;;;;;;;49.05;29.42;;;;;;;5.91;68.18;99125.56;5093717;28;20036;-73
2021/03/10 01:00:05;;;;;;;50.90;30.13;;;;;;;5.92;67.96;99129.88;5093162;28;20054;-72
2021/03/10 01:02:32;;;;;;;45.40;29.60;;;;;;;5.93;68.17;99125.44;5093191;28;20052;-72
2021/03/10 01:05:00;;;;;;;50.40;30.40;;;;;;;5.96;68.16;99119.91;5092940;28;20181;-72
2021/03/10 01:07:27;;;;;;;49.13;29.38;;;;;;;5.95;67.61;99128.72;5093090;28;20051;-72
2021/03/10 01:09:53;;;;;;;47.95;30.88;;;;;;;5.94;68.11;99121.84;5092799;28;20039;-72
2021/03/10 01:12:22;;;;;;;50.47;31.48;;;;;;;5.93;68.13;99123.66;5091643;28;20054;-72
2021/03/10 01:14:48;;;;;;;50.25;29.33;;;;;;;5.85;68.27;99110.44;5092675;28;20050;-72
2021/03/10 01:17:15;;;;;;;47.25;28.98;;;;;;;5.89;68.40;99124.09;5091665;28;20048;-72
2021/03/10 01:19:42;;;;;;;51.58;30.83;;;;;;;5.85;68.35;99123.56;5092609;28;20040;-72
2021/03/10 01:22:09;;;;;;;51.50;30.42;;;;;;;5.88;68.39;99117.19;5092768;28;20529;-72
2021/03/10 01:24:36;;;;;;;46.30;30.85;;;;;;;5.90;68.29;99104.72;5092672;28;20048;-72
2021/03/10 01:27:03;;;;;;;50.80;30.88;;;;;;;5.89;68.13;99106.53;5092736;28;20048;-72
2021/03/10 01:29:31;;;;;;;48.03;29.30;;;;;;;5.91;67.88;99101.94;5091158;28;20052;-72
2021/03/10 01:31:57;;;;;;;47.08;29.38;;;;;;;5.93;68.05;99091.34;5092554;28;20036;-72
2021/03/10 01:34:24;;;;;;;48.10;30.48;;;;;;;5.91;68.11;99094.06;5091151;28;20089;-72
2021/03/10 01:36:51;;;;;;;46.80;30.15;;;;;;;5.92;67.91;99093.16;5092616;28;20060;-72
2021/03/10 01:39:18;;;;;;;44.63;30.48;;;;;;;5.89;68.06;99095.22;5092228;28;20039;-72
2021/03/10 01:41:45;;;;;;;48.35;29.83;;;;;;;5.89;68.00;99093.41;5114511;28;20087;-72
2021/03/10 01:44:14;;;;;;;48.15;29.05;;;;;;;5.91;68.04;99080.13;5118323;28;20108;-73
2021/03/10 01:46:42;;;;;;;48.85;29.42;;;;;;;5.92;68.22;99090.53;5110457;28;20050;-72
2021/03/10 01:49:10;;;;;;;50.08;29.48;;;;;;;5.97;68.34;99086.59;5092569;28;20490;-71
2021/03/10 01:51:37;;;;;;;46.72;30.20;;;;;;;5.94;67.99;99085.09;5092479;28;20135;-72
2021/03/10 01:54:04;;;;;;;49.15;29.98;;;;;;;5.85;67.77;99086.00;5091147;28;20409;-72
2021/03/10 01:56:31;;;;;;;50.85;30.58;;;;;;;5.79;68.33;99094.50;5090919;28;20502;-72
2021/03/10 01:58:58;;;;;;;49.30;30.25;;;;;;;5.77;68.38;99093.84;5092060;28;20070;-71
2021/03/10 02:01:24;;;;;;;48.97;28.92;;;;;;;5.71;68.70;99090.88;5090919;28;20196;-71
2021/03/10 02:03:52;;;;;;;50.00;30.83;;;;;;;5.72;68.78;99089.06;5090769;28;20047;-71
2021/03/10 02:06:40;;;;;;;50.47;30.20;;;;;;;5.78;68.62;99090.22;5091978;28;20126;-72
2021/03/10 02:09:12;;;;;;;48.08;30.05;;;;;;;5.68;68.73;99092.97;5091897;28;20051;-72
2021/03/10 02:11:43;;;;;;;48.15;29.70;;;;;;;5.64;68.84;99099.50;5092004;28;20478;-72
2021/03/10 02:14:20;;;;;;;51.28;31.27;;;;;;;5.64;69.01;99110.00;5092087;28;20048;-72
2021/03/10 02:16:49;;;;;;;47.80;29.73;;;;;;;5.68;68.91;99106.09;5092166;28;20050;-71
2021/03/10 02:19:48;;;;;;;48.35;29.90;;;;;;;5.69;68.92;99100.66;5091784;28;20078;-71
2021/03/10 02:22:27;;;;;;;52.88;30.90;;;;;;;5.70;68.85;99102.31;5075522;28;20059;-71
2021/03/10 02:25:03;;;;;;;52.53;31.15;;;;;;;5.62;68.81;99110.13;5091894;28;20043;-72
2021/03/10 02:27:44;;;;;;;47.45;29.02;;;;;;;5.54;69.06;99124.97;5091873;28;20036;-72
2021/03/10 02:30:14;;;;;;;52.78;30.42;;;;;;;5.55;69.19;99124.84;5090620;28;20075;-71
2021/03/10 02:32:57;;;;;;;51.28;30.55;;;;;;;5.64;69.51;99128.34;5092297;28;20040;-71
2021/03/10 02:35:26;;;;;;;53.53;33.08;;;;;;;5.65;69.17;99120.31;5091907;28;20055;-72
2021/03/10 02:37:56;;;;;;;51.45;30.73;;;;;;;5.55;69.03;99124.84;5091901;28;20055;-71
2021/03/10 02:40:26;;;;;;;54.40;30.92;;;;;;;5.54;69.65;99117.09;5091884;28;20056;-71
2021/03/10 02:42:55;;;;;;;51.50;30.98;;;;;;;5.56;69.52;99110.75;5090760;28;20040;-71
2021/03/10 02:45:23;;;;;;;51.92;31.15;;;;;;;5.58;69.44;99107.97;5091699;28;20055;-71
2021/03/10 02:47:51;;;;;;;52.10;31.05;;;;;;;5.52;69.40;99103.34;5091726;28;20051;-71
2021/03/10 02:50:19;;;;;;;51.28;31.98;;;;;;;5.41;69.90;99114.88;5091844;28;20044;-71
2021/03/10 02:52:46;;;;;;;53.30;33.47;;;;;;;5.45;69.91;99117.06;5095738;28;20059;-71
2021/03/10 02:55:13;;;;;;;49.90;31.42;;;;;;;5.34;69.74;99117.28;5094187;28;20048;-71
2021/03/10 02:57:41;;;;;;;55.92;33.13;;;;;;;5.35;69.88;99108.47;5095879;28;20058;-72
2021/03/10 03:00:12;;;;;;;53.10;31.13;;;;;;;5.41;69.97;99113.09;5097666;28;20067;-71
2021/03/10 03:02:39;;;;;;;50.60;30.50;;;;;;;5.46;69.83;99117.88;5095712;28;20135;-72
2021/03/10 03:05:08;;;;;;;50.38;31.15;;;;;;;5.51;69.53;99122.66;5096027;28;20105;-72
2021/03/10 03:07:38;;;;;;;53.42;31.67;;;;;;;5.49;69.55;99122.81;5095654;28;20120;-72
2021/03/10 03:10:06;;;;;;;52.13;32.78;;;;;;;5.49;69.64;99122.81;5096271;28;20508;-71
2021/03/10 03:12:33;;;;;;;53.58;32.05;;;;;;;5.51;69.66;99122.66;5096879;28;20048;-71
2021/03/10 03:15:02;;;;;;;53.63;32.72;;;;;;;5.47;69.70;99122.16;5096941;28;20406;-71
2021/03/10 03:17:31;;;;;;;56.72;32.28;;;;;;;5.52;69.54;99119.06;5095946;28;20048;-72
2021/03/10 03:20:01;;;;;;;59.67;33.75;;;;;;;5.53;69.51;99116.28;5095042;28;20048;-72
2021/03/10 03:22:28;;;;;;;56.28;34.80;;;;;;;5.54;69.30;99117.94;5095164;28;20387;-72
2021/03/10 03:24:55;;;;;;;50.53;32.58;;;;;;;5.41;69.66;99120.13;5095439;28;20405;-72
2021/03/10 03:27:25;;;;;;;57.13;34.03;;;;;;;5.38;69.80;99120.44;5095275;28;20044;-72
2021/03/10 03:29:58;;;;;;;50.38;32.72;;;;;;;5.35;69.85;99121.56;5094799;28;20048;-72
2021/03/10 03:32:27;;;;;;;54.55;32.33;;;;;;;5.44;69.89;99109.34;5094842;28;20040;-71
2021/03/10 03:34:55;;;;;;;51.22;31.17;;;;;;;5.49;69.47;99116.75;5094595;28;20438;-72
2021/03/10 03:37:40;;;;;;;50.58;31.27;;;;;;;5.47;69.49;99125.59;5093373;28;20055;-72
2021/03/10 03:40:08;;;;;;;58.60;33.17;;;;;;;5.34;69.60;99130.38;5094611;28;20513;-72
2021/03/10 03:42:35;;;;;;;56.33;32.92;;;;;;;5.31;69.84;99122.03;5094723;28;20471;-71
2021/03/10 03:45:03;;;;;;;51.70;31.95;;;;;;;5.25;69.81;99136.53;5094385;28;20050;-72
2021/03/10 03:47:30;;;;;;;55.78;32.55;;;;;;;5.23;69.80;99130.63;5094465;28;20440;-72
2021/03/10 03:49:57;;;;;;;51.83;32.55;;;;;;;5.19;69.95;99137.16;5094329;28;20479;-72
2021/03/10 03:52:24;;;;;;;56.85;34.03;;;;;;;5.16;69.97;99134.81;5094173;28;20042;-72
2021/03/10 03:54:51;;;;;;;55.25;32.42;;;;;;;5.18;70.03;99130.25;5094365;28;20127;-72
2021/03/10 03:57:18;;;;;;;49.40;31.77;;;;;;;5.21;70.03;99135.19;5094587;28;20048;-71
2021/03/10 03:59:44;;;;;;;58.33;30.92;;;;;;;5.26;70.06;99139.97;5094136;28;20395;-70
2021/03/10 04:02:12;;;;;;;51.50;32.45;;;;;;;5.22;69.99;99144.69;5094869;28;20040;-70
2021/03/10 04:04:39;;;;;;;54.15;33.70;;;;;;;5.07;70.07;99154.91;5094188;28;20051;-70
2021/03/10 04:07:06;;;;;;;58.45;31.95;;;;;;;5.08;70.31;99150.47;5094235;28;20044;-70
2021/03/10 04:09:33;;;;;;;56.63;32.90;;;;;;;5.12;70.19;99157.88;5094175;28;20032;-70
2021/03/10 04:12:02;;;;;;;53.45;31.67;;;;;;;5.16;70.20;99147.94;5094655;28;20036;-70
2021/03/10 04:14:28;;;;;;;53.15;31.42;;;;;;;5.19;70.15;99137.97;5093949;28;20051;-70
2021/03/10 04:16:55;;;;;;;55.22;32.35;;;;;;;5.15;70.24;99141.06;5094107;28;20405;-71
2021/03/10 04:19:22;;;;;;;50.60;31.08;;;;;;;5.20;70.21;99136.19;5093866;28;20075;-70
2021/03/10 04:21:49;;;;;;;53.55;33.65;;;;;;;5.16;70.34;99140.06;5093967;28;20126;-71
2021/03/10 04:24:16;;;;;;;53.92;33.25;;;;;;;5.16;70.34;99142.69;5093810;28;20047;-70
2021/03/10 04:26:43;;;;;;;56.17;33.97;;;;;;;5.19;70.52;99147.63;5093905;28;20040;-70
2021/03/10 04:29:10;;;;;;;56.50;33.78;;;;;;;5.23;70.34;99141.13;5093462;28;20056;-70
2021/03/10 04:31:37;;;;;;;55.00;32.78;;;;;;;5.22;70.05;99142.06;5093517;28;20502;-70
2021/03/10 04:34:04;;;;;;;50.28;32.20;;;;;;;5.01;70.53;99139.75;5093730;28;20067;-71
2021/03/10 04:36:31;;;;;;;59.50;34.00;;;;;;;5.05;70.58;99150.75;5093684;28;20556;-70
2021/03/10 04:38:58;;;;;;;57.15;34.33;;;;;;;5.09;70.78;99150.31;5093413;28;20051;-70
2021/03/10 04:41:25;;;;;;;59.60;34.78;;;;;;;5.10;70.67;99151.97;5093559;28;20401;-70
2021/03/10 04:43:52;;;;;;;55.40;33.03;;;;;;;5.09;70.63;99150.31;5093566;28;20048;-70
2021/03/10 04:46:19;;;;;;;50.45;32.22;;;;;;;5.16;70.57;99155.78;5093594;28;20070;-70
2021/03/10 04:48:45;;;;;;;56.83;32.72;;;;;;;5.20;70.35;99155.34;5093185;28;20123;-70
2021/03/10 04:51:12;;;;;;;49.20;32.10;;;;;;;5.22;70.35;99156.03;5093614;28;20052;-71
2021/03/10 04:53:39;;;;;;;51.55;31.55;;;;;;;5.25;70.36;99149.66;5093359;28;20111;-70
2021/03/10 04:56:06;;;;;;;53.95;32.58;;;;;;;5.30;70.12;99152.63;5093028;28;20059;-71
2021/03/10 04:58:33;;;;;;;50.80;31.33;;;;;;;5.29;70.22;99158.84;5093036;28;20043;-70
2021/03/10 05:01:00;;;;;;;51.05;31.90;;;;;;;5.32;70.00;99158.56;5093048;28;20390;-70
2021/03/10 05:03:27;;;;;;;52.17;31.27;;;;;;;5.29;69.70;99169.34;5093176;28;20044;-70
2021/03/10 05:05:53;;;;;;;51.30;31.42;;;;;;;5.31;69.65;99158.72;5093429;28;20326;-70
2021/03/10 05:08:20;;;;;;;54.03;32.10;;;;;;;5.27;69.90;99160.81;5092808;28;20044;-70
2021/03/10 05:10:47;;;;;;;53.10;32.10;;;;;;;5.28;69.91;99172.94;5092819;28;20052;-70
2021/03/10 05:13:14;;;;;;;49.95;32.47;;;;;;;5.28;69.79;99175.56;5092378;28;20036;-70
2021/03/10 05:15:41;;;;;;;48.60;30.75;;;;;;;5.27;69.98;99187.03;5092794;28;20052;-71
2021/03/10 05:18:09;;;;;;;50.78;30.38;;;;;;;5.19;69.94;99186.97;5091441;28;20040;-71
2021/03/10 05:20:35;;;;;;;52.58;31.13;;;;;;;5.20;69.99;99183.34;5092798;28;20054;-71
2021/03/10 05:23:02;;;;;;;48.95;31.80;;;;;;;5.15;70.07;99175.94;5092692;28;20059;-71
2021/03/10 05:25:29;;;;;;;51.10;31.13;;;;;;;5.19;69.88;99166.00;5092383;28;20062;-71
2021/03/10 05:27:56;;;;;;;52.17;30.77;;;;;;;5.16;70.24;99180.19;5094946;28;20044;-71
2021/03/10 05:30:22;;;;;;;54.30;32.50;;;;;;;5.13;70.29;99177.06;5118375;28;20090;-72
2021/03/10 05:32:50;;;;;;;52.33;31.27;;;;;;;5.20;70.38;99180.72;5118408;28;20054;-72
2021/03/10 05:35:17;;;;;;;49.67;30.65;;;;;;;5.24;70.17;99179.47;5104635;28;20048;-71
2021/03/10 05:37:43;;;;;;;53.90;32.80;;;;;;;5.24;70.05;99174.22;5091582;28;20417;-71
2021/03/10 05:40:10;;;;;;;53.67;34.05;;;;;;;5.15;69.97;99173.31;5092660;28;20044;-71
2021/03/10 05:42:41;;;;;;;53.60;33.40;;;;;;;5.06;69.83;99181.22;5092561;28;20071;-71
2021/03/10 05:45:09;;;;;;;54.47;32.80;;;;;;;4.95;70.22;99177.03;5092379;28;20044;-71
2021/03/10 05:47:36;;;;;;;52.50;31.73;;;;;;;4.90;70.52;99182.72;5092399;28;20405;-71
2021/03/10 05:50:06;;;;;;;52.35;32.63;;;;;;;4.99;70.81;99185.44;5092304;28;20063;-72
2021/03/10 05:52:36;;;;;;;49.25;31.30;;;;;;;5.08;70.70;99190.59;5092329;28;20044;-72
2021/03/10 05:55:05;;;;;;;52.70;31.67;;;;;;;5.13;70.48;99196.22;5092372;28;20040;-71
2021/03/10 05:57:32;;;;;;;55.40;33.38;;;;;;;5.21;70.15;99188.44;5092272;28;20573;-71
2021/03/10 05:59:59;;;;;;;53.35;31.50;;;;;;;5.18;70.01;99193.16;5091917;28;20040;-71
2021/03/10 06:02:26;;;;;;;53.40;33.10;;;;;;;5.11;69.89;99190.31;5092021;28;20044;-71
2021/03/10 06:04:53;;;;;;;51.80;31.40;;;;;;;4.96;70.10;99191.78;5091929;28;20176;-71
2021/03/10 06:07:22;;;;;;;50.70;31.55;;;;;;;4.99;70.83;99194.13;5092047;28;20434;-71
2021/03/10 06:09:59;;;;;;;54.13;31.05;;;;;;;5.11;70.81;99194.72;5091799;28;20490;-71
2021/03/10 06:12:37;;;;;;;53.63;32.47;;;;;;;5.13;70.51;99190.16;5092196;28;20048;-71
2021/03/10 06:15:05;;;;;;;52.70;32.83;;;;;;;5.18;70.23;99186.13;5091748;28;20048;-71
2021/03/10 06:17:43;;;;;;;46.97;30.77;;;;;;;5.24;70.35;99184.69;5090583;28;20043;-71
2021/03/10 06:20:22;;;;;;;50.67;31.42;;;;;;;5.35;70.12;99183.66;5090535;28;20052;-71
2021/03/10 06:22:50;;;;;;;48.85;30.63;;;;;;;5.35;70.06;99181.88;5092435;28;20453;-71
2021/03/10 06:25:16;;;;;;;49.10;30.88;;;;;;;5.41;70.03;99178.63;5092364;28;20132;-71
2021/03/10 06:27:53;;;;;;;53.47;31.42;;;;;;;5.45;69.71;99179.97;5095389;28;20048;-71
2021/03/10 06:30:34;;;;;;;48.97;30.40;;;;;;;5.44;69.50;99188.00;5097749;28;20076;-71
2021/03/10 06:33:02;;;;;;;49.85;30.52;;;;;;;5.45;69.60;99187.03;5097823;28;20074;-71
2021/03/10 06:35:31;;;;;;;47.40;30.15;;;;;;;5.54;69.20;99185.28;5097381;28;20040;-71
2021/03/10 06:38:13;;;;;;;50.45;30.55;;;;;;;5.56;69.15;99184.19;5097915;28;20047;-71
2021/03/10 06:40:53;;;;;;;51.55;31.60;;;;;;;5.59;69.07;99194.38;5096115;28;20544;-71
2021/03/10 06:43:32;;;;;;;44.88;29.77;;;;;;;5.62;69.02;99195.84;5097179;28;20043;-71
2021/03/10 06:46:09;;;;;;;54.05;33.28;;;;;;;5.71;68.77;99194.94;5097131;28;20046;-71
2021/03/10 06:48:37;;;;;;;49.72;30.75;;;;;;;5.70;68.88;99194.13;5096791;28;20048;-71
2021/03/10 06:51:12;;;;;;;53.92;32.45;;;;;;;5.73;68.81;99206.13;5097009;28;20055;-71
2021/03/10 06:53:40;;;;;;;48.88;31.83;;;;;;;5.77;68.56;99206.66;5097280;28;20051;-71
2021/03/10 06:56:17;;;;;;;56.03;32.05;;;;;;;5.78;68.63;99209.09;5095674;28;20047;-71
2021/03/10 06:58:54;;;;;;;54.10;33.20;;;;;;;5.75;68.55;99203.34;5095355;28;20044;-71
2021/03/10 07:01:21;;;;;;;51.13;32.65;;;;;;;5.74;68.75;99214.81;5096468;28;20044;-71
2021/03/10 07:03:50;;;;;;;52.50;32.05;;;;;;;5.79;68.60;99213.38;5097397;28;20051;-71
2021/03/10 07:06:19;;;;;;;56.45;32.85;;;;;;;5.87;68.52;99223.09;5097469;28;20048;-71
2021/03/10 07:08:50;;;;;;;54.08;32.58;;;;;;;5.90;68.49;99234.13;5098081;28;20105;-71
2021/03/10 07:11:19;;;;;;;53.05;32.67;;;;;;;5.89;68.52;99234.28;5097217;28;20055;-71
2021/03/10 07:13:48;;;;;;;55.05;33.90;;;;;;;5.94;68.35;99227.63;5097237;28;20044;-71
2021/03/10 07:16:16;;;;;;;56.42;33.63;;;;;;;6.04;68.16;99224.09;5097422;28;20035;-71
2021/03/10 07:18:47;;;;;;;51.70;32.65;;;;;;;6.08;67.84;99236.78;5096746;28;20047;-71
2021/03/10 07:21:27;;;;;;;52.40;32.97;;;;;;;6.04;67.84;99238.06;5095073;28;20130;-71
2021/03/10 07:23:58;;;;;;;49.80;31.10;;;;;;;6.10;67.89;99241.84;5096519;28;20044;-71
2021/03/10 07:26:27;;;;;;;52.92;32.70;;;;;;;6.14;67.83;99241.38;5096215;28;20048;-71
2021/03/10 07:28:58;;;;;;;51.58;32.35;;;;;;;6.18;67.81;99247.16;5096623;28;20044;-71
2021/03/10 07:31:25;;;;;;;50.15;30.98;;;;;;;6.23;67.74;99258.03;5096279;28;20398;-71
2021/03/10 07:33:54;;;;;;;52.00;31.42;;;;;;;6.18;67.76;99261.09;5095962;28;20142;-71
2021/03/10 07:36:35;;;;;;;51.47;32.50;;;;;;;6.19;67.90;99262.75;5093731;28;20075;-71
2021/03/10 07:39:05;;;;;;;49.67;31.92;;;;;;;6.22;67.52;99261.63;5093320;28;20088;-71
2021/03/10 07:41:37;;;;;;;50.42;32.00;;;;;;;6.18;67.89;99257.66;5094862;28;20113;-71
2021/03/10 07:44:15;;;;;;;51.28;32.60;;;;;;;6.22;68.02;99261.63;5095179;28;20040;-71
2021/03/10 07:46:42;;;;;;;54.60;34.75;;;;;;;6.31;67.62;99258.06;5094763;28;20048;-71
2021/03/10 07:49:20;;;;;;;51.97;32.40;;;;;;;6.30;67.86;99272.19;5094482;28;20036;-71
2021/03/10 07:51:47;;;;;;;49.45;32.25;;;;;;;6.40;67.65;99272.91;5093290;28;20048;-71
2021/03/10 07:54:23;;;;;;;49.25;31.67;;;;;;;6.59;67.54;99266.63;5094344;28;20040;-72
2021/03/10 07:56:50;;;;;;;53.15;35.40;;;;;;;6.60;67.17;99257.75;5094833;28;20122;-71
2021/03/10 07:59:18;;;;;;;53.72;35.65;;;;;;;6.63;67.08;99254.81;5094174;28;20442;-71
2021/03/10 08:01:46;;;;;;;56.55;35.00;;;;;;;6.69;67.14;99256.00;5094198;28;20563;-70
2021/03/10 08:04:15;;;;;;;55.45;35.15;;;;;;;6.76;67.05;99267.53;5094447;28;20036;-71
2021/03/10 08:06:46;;;;;;;55.38;34.95;;;;;;;6.75;66.88;99275.59;5094115;28;20036;-71
2021/03/10 08:09:13;;;;;;;60.67;37.45;;;;;;;6.71;66.92;99269.81;5093824;28;20127;-72
2021/03/10 08:11:44;;;;;;;54.88;36.47;;;;;;;6.83;66.90;99260.69;5093964;28;20040;-71
2021/03/10 08:14:12;;;;;;;58.03;36.90;;;;;;;6.85;66.83;99257.88;5093762;28;20044;-71
2021/03/10 08:16:47;;;;;;;56.35;37.03;;;;;;;6.97;66.75;99263.69;5092571;28;20059;-71
2021/03/10 08:19:20;;;;;;;57.75;37.40;;;;;;;7.01;66.52;99257.94;5093667;28;20036;-71
2021/03/10 08:21:51;;;;;;;61.20;41.95;;;;;;;7.15;66.55;99259.16;5092487;28;20052;-71
2021/03/10 08:24:18;;;;;;;63.15;39.47;;;;;;;7.23;66.30;99266.25;5093635;28;20040;-71
2021/03/10 08:26:50;;;;;;;66.03;43.22;;;;;;;7.37;66.11;99261.19;5092300;28;20044;-71
2021/03/10 08:29:18;;;;;;;64.70;40.25;;;;;;;7.53;66.29;99257.78;5093642;28;20132;-71
2021/03/10 08:31:50;;;;;;;63.72;41.33;;;;;;;7.72;65.90;99267.19;5093681;28;20051;-71
2021/03/10 08:34:59;;;;;;;62.00;39.38;;;;;;;7.81;65.38;99266.19;5094696;28;20047;-71
2021/03/10 08:37:27;;;;;;;62.05;38.65;;;;;;;7.94;65.12;99271.78;5093628;28;20036;-71
2021/03/10 08:39:54;;;;;;;60.38;37.60;;;;;;;8.03;64.35;99277.88;5091981;28;20071;-69
2021/03/10 08:42:23;;;;;;;58.03;38.50;;;;;;;8.09;64.37;99266.69;5093527;28;20051;-69
2021/03/10 08:44:51;;;;;;;56.25;39.80;;;;;;;8.14;64.08;99261.75;5093348;28;20051;-69
2021/03/10 08:47:20;;;;;;;60.92;38.00;;;;;;;8.08;63.89;99258.94;5092805;28;20406;-69
2021/03/10 08:49:50;;;;;;;56.10;37.08;;;;;;;8.12;63.89;99260.25;5092995;28;20196;-69
2021/03/10 08:52:21;;;;;;;56.53;38.72;;;;;;;8.14;63.76;99259.13;5093497;28;20063;-69
2021/03/10 08:54:54;;;;;;;61.08;39.97;;;;;;;8.05;63.33;99259.31;5092225;28;20410;-69
2021/03/10 08:57:24;;;;;;;59.97;40.08;;;;;;;8.15;63.49;99254.66;5091942;28;20055;-70
2021/03/10 08:59:52;;;;;;;60.22;40.03;;;;;;;8.24;63.31;99250.22;5091827;28;20093;-69
2021/03/10 09:02:26;;;;;;;58.00;39.30;;;;;;;8.33;63.36;99254.50;5093151;28;20047;-69
2021/03/10 09:04:54;;;;;;;60.22;39.10;;;;;;;8.29;62.98;99251.38;5092068;28;20036;-69
2021/03/10 09:07:22;;;;;;;59.47;39.08;;;;;;;8.32;63.43;99251.03;5093114;28;20478;-69
2021/03/10 09:09:54;;;;;;;54.65;38.85;;;;;;;8.29;62.95;99246.13;5093510;28;20055;-70
2021/03/10 09:12:23;;;;;;;56.65;37.97;;;;;;;8.33;63.17;99251.88;5092213;28;20044;-69
2021/03/10 09:14:56;;;;;;;54.03;36.60;;;;;;;8.40;62.71;99244.94;5091985;28;20473;-69
2021/03/10 09:17:31;;;;;;;54.03;36.40;;;;;;;8.51;62.55;99241.97;5116552;28;20494;-69
2021/03/10 09:20:02;;;;;;;59.65;41.28;;;;;;;8.62;62.48;99235.53;5117499;28;20066;-69
2021/03/10 09:22:32;;;;;;;53.47;36.05;;;;;;;8.75;62.46;99240.25;5102519;28;20060;-69
2021/03/10 09:25:22;;;;;;;58.22;39.22;;;;;;;8.84;62.10;99245.31;5091817;28;20143;-69
2021/03/10 09:28:08;;;;;;;63.10;44.50;;;;;;;8.84;61.72;99245.31;5091493;28;20077;-70
2021/03/10 09:30:43;;;;;;;61.17;41.63;;;;;;;8.77;61.95;99244.34;5091520;28;20555;-70
2021/03/10 09:33:18;;;;;;;57.40;40.67;;;;;;;8.70;61.81;99243.41;5092773;28;20049;-70
2021/03/10 09:35:52;;;;;;;59.38;39.72;;;;;;;8.50;61.68;99242.16;5092489;28;20036;-70
2021/03/10 09:38:20;;;;;;;62.25;41.03;;;;;;;8.50;62.15;99242.16;5091157;28;20097;-69
2021/03/10 09:40:52;;;;;;;60.95;40.35;;;;;;;8.54;61.99;99238.19;5092413;28;20038;-69
2021/03/10 09:43:22;;;;;;;59.42;38.30;;;;;;;8.44;61.83;99248.91;5092444;28;20448;-69
2021/03/10 09:45:55;;;;;;;53.60;37.75;;;;;;;8.44;62.01;99255.00;5090964;28;20044;-69
2021/03/10 09:48:29;;;;;;;55.58;38.28;;;;;;;8.36;61.97;99236.53;5092248;28;20120;-69
2021/03/10 09:51:04;;;;;;;63.08;37.38;;;;;;;8.46;62.04;99241.66;5091105;28;20062;-70
2021/03/10 09:53:34;;;;;;;54.25;38.33;;;;;;;8.50;62.01;99235.06;5091224;28;20051;-69
2021/03/10 09:56:09;;;;;;;56.88;39.92;;;;;;;8.66;61.61;99235.03;5092177;28;20390;-69
2021/03/10 09:58:49;;;;;;;57.38;37.50;;;;;;;8.79;61.15;99231.84;5092058;28;20093;-70
2021/03/10 10:01:22;;;;;;;56.63;38.38;;;;;;;8.77;60.83;99228.53;5091185;28;20513;-69
2021/03/10 10:03:49;;;;;;;53.50;36.10;;;;;;;8.80;60.36;99222.13;5091148;28;20417;-69
2021/03/10 10:06:17;;;;;;;54.17;34.42;;;;;;;8.87;60.24;99223.09;5091408;28;20522;-69
2021/03/10 10:08:49;;;;;;;49.50;31.17;;;;;;;9.04;60.12;99221.19;5091097;28;20051;-69
2021/03/10 10:11:20;;;;;;;49.72;35.05;;;;;;;9.10;59.50;99223.13;5091467;28;20095;-70
2021/03/10 10:13:50;;;;;;;52.08;35.88;;;;;;;9.11;59.57;99222.97;5092426;28;20044;-69
2021/03/10 10:16:19;;;;;;;48.92;35.33;;;;;;;9.12;59.05;99229.06;5090910;28;20082;-69
2021/03/10 10:18:48;;;;;;;48.17;34.08;;;;;;;9.15;59.30;99224.28;5090624;28;20494;-70
2021/03/10 10:21:17;;;;;;;50.60;34.25;;;;;;;9.23;58.67;99226.03;5091021;28;20076;-70
2021/03/10 10:23:47;;;;;;;49.78;34.72;;;;;;;9.33;58.75;99226.63;5092269;28;20046;-70
2021/03/10 10:26:18;;;;;;;50.20;36.67;;;;;;;9.41;57.88;99216.03;5090637;28;20071;-70
2021/03/10 10:28:48;;;;;;;44.70;32.38;;;;;;;9.48;57.76;99216.16;5091530;28;20032;-70
2021/03/10 10:31:35;;;;;;;45.80;34.95;;;;;;;9.53;57.63;99218.25;5090596;28;20071;-70
2021/03/10 10:34:04;;;;;;;43.92;31.67;;;;;;;9.51;57.17;99212.31;5090440;28;20495;-70
2021/03/10 10:36:32;;;;;;;47.15;32.08;;;;;;;9.59;57.14;99207.00;5090691;28;20052;-70
2021/03/10 10:39:17;;;;;;;46.63;33.38;;;;;;;9.71;56.93;99207.41;5090600;28;20044;-70
2021/03/10 10:41:45;;;;;;;47.63;33.13;;;;;;;9.72;56.80;99195.88;5090623;28;20052;-70
2021/03/10 10:44:13;;;;;;;42.67;30.88;;;;;;;9.87;56.49;99208.09;5090562;28;20536;-70
2021/03/10 10:46:44;;;;;;;46.97;32.75;;;;;;;10.04;56.10;99206.16;5090923;28;20062;-70
2021/03/10 10:49:11;;;;;;;44.03;31.52;;;;;;;10.22;55.76;99203.16;5090535;28;20044;-70
2021/03/10 10:51:38;;;;;;;49.47;36.88;;;;;;;10.27;55.27;99184.97;5092135;28;20040;-70
2021/03/10 10:54:13;;;;;;;45.67;32.70;;;;;;;10.24;55.36;99195.03;5090419;28;20131;-70
2021/03/10 10:56:42;;;;;;;45.25;33.25;;;;;;;10.34;55.10;99190.34;5090522;28;20379;-70
2021/03/10 10:59:26;;;;;;;46.70;33.00;;;;;;;10.36;54.77;99194.44;5090273;28;20044;-70
2021/03/10 11:01:54;;;;;;;42.58;31.55;;;;;;;10.20;54.45;99201.69;5090593;28;20074;-70
2021/03/10 11:04:21;;;;;;;39.33;28.40;;;;;;;10.09;54.60;99198.50;5090619;28;20485;-70
2021/03/10 11:06:48;;;;;;;38.25;27.23;;;;;;;10.08;54.03;99193.38;5090739;28;20051;-68
2021/03/10 11:09:15;;;;;;;37.13;27.98;;;;;;;10.23;54.21;99202.16;5090164;28;20068;-68
2021/03/10 11:11:42;;;;;;;38.92;29.20;;;;;;;10.29;53.61;99182.16;5093371;28;20440;-68
2021/03/10 11:14:10;;;;;;;35.25;25.90;;;;;;;10.39;52.81;99186.16;5093938;28;20043;-68
2021/03/10 11:16:46;;;;;;;43.22;29.48;;;;;;;10.55;52.70;99193.09;5094821;28;20051;-68
2021/03/10 11:19:21;;;;;;;40.13;27.70;;;;;;;10.58;52.10;99184.81;5096160;28;20117;-69
2021/03/10 11:21:51;;;;;;;34.58;25.23;;;;;;;10.64;51.17;99186.69;5095010;28;20181;-69
2021/03/10 11:24:22;;;;;;;33.15;25.35;;;;;;;10.71;51.51;99170.13;5094619;28;20040;-69
2021/03/10 11:26:50;;;;;;;34.97;25.13;;;;;;;10.80;51.42;99169.81;5094514;28;20094;-70
2021/03/10 11:29:22;;;;;;;31.58;23.60;;;;;;;10.93;50.89;99163.84;5094313;28;20151;-69
2021/03/10 11:31:50;;;;;;;33.55;24.70;;;;;;;10.89;50.38;99162.59;5095091;28;20051;-69
2021/03/10 11:34:19;;;;;;;30.52;23.05;;;;;;;10.78;50.18;99166.56;5094889;28;20044;-69
2021/03/10 11:36:47;;;;;;;33.83;25.02;;;;;;;10.99;49.78;99165.78;5095779;28;20048;-69